Time;durP1;ratioP1;P1;durP2;ratioP2;P2;SDS_P1;SDS_P2;PMS_P1;PMS_P2;Temp;Humidity;BMP_temperature;BMP_pressure;BME280_temperature;BME280_humidity;BME280_pressure;Samples;Min_cycle;Max_cycle;Signal;HPM_P1;HPM_P2
2023/11/30 00:01:00;;;;;;;6.70;4.80;;;;;;;-0.09;100.00;151347.88;4987481;28;20981;-83
2023/11/30 00:03:26;;;;;;;6.30;4.10;;;;;;;-0.13;100.00;151338.88;4987197;28;20520;-83
2023/11/30 00:05:54;;;;;;;5.07;3.60;;;;;;;-0.16;100.00;151331.16;4988554;28;20798;-83
2023/11/30 00:08:21;;;;;;;6.23;4.30;;;;;;;-0.21;100.00;151317.03;4970314;28;20458;-83
2023/11/30 00:10:47;;;;;;;5.47;4.10;;;;;;;-0.22;100.00;151314.50;4986357;28;20453;-83
2023/11/30 00:13:13;;;;;;;5.60;4.60;;;;;;;-0.20;100.00;151320.91;4988539;28;20445;-83
2023/11/30 00:15:40;;;;;;;6.70;4.50;;;;;;;-0.20;100.00;151320.91;4986464;28;20976;-83
2023/11/30 00:18:07;;;;;;;5.10;3.97;;;;;;;-0.22;100.00;151315.81;4968756;28;20976;-83
2023/11/30 00:20:34;;;;;;;6.37;4.17;;;;;;;-0.24;100.00;151310.63;4990219;28;20504;-84
2023/11/30 00:23:02;;;;;;;4.80;4.07;;;;;;;-0.21;100.00;151318.34;4986781;28;20476;-83
2023/11/30 00:25:28;;;;;;;7.17;5.10;;;;;;;-0.24;100.00;151309.38;4978000;28;20458;-83
2023/11/30 00:27:55;;;;;;;5.73;4.43;;;;;;;-0.28;100.00;151300.41;4996149;28;20470;-83
2023/11/30 00:30:22;;;;;;;6.80;4.20;;;;;;;-0.31;100.00;151292.69;4975344;28;20461;-83
2023/11/30 00:32:48;;;;;;;6.23;4.40;;;;;;;-0.31;100.00;151292.69;4988151;28;20464;-83
2023/11/30 00:35:15;;;;;;;7.47;4.80;;;;;;;-0.34;100.00;151284.97;4987522;28;20816;-83
2023/11/30 00:37:41;;;;;;;5.70;4.20;;;;;;;-0.35;100.00;151282.44;4990777;28;20449;-83
2023/11/30 00:40:10;;;;;;;5.73;4.07;;;;;;;-0.34;100.00;151284.97;4985712;28;20517;-83
2023/11/30 00:42:37;;;;;;;5.33;3.90;;;;;;;-0.37;100.00;151277.28;4971019;28;20470;-83
2023/11/30 00:45:04;;;;;;;6.03;4.77;;;;;;;-0.35;100.00;151281.16;4986959;28;20515;-83
2023/11/30 00:47:31;;;;;;;6.90;4.37;;;;;;;-0.35;100.00;151282.44;4977868;28;20462;-84
2023/11/30 00:49:57;;;;;;;5.70;4.20;;;;;;;-0.34;100.00;151284.97;4989387;28;20512;-84
2023/11/30 00:52:24;;;;;;;6.90;4.90;;;;;;;-0.36;100.00;151279.88;4989393;28;20469;-84
2023/11/30 00:54:50;;;;;;;6.27;4.83;;;;;;;-0.36;100.00;151279.88;4985609;28;20477;-83
2023/11/30 00:57:18;;;;;;;7.27;4.37;;;;;;;-0.35;100.00;151282.44;4987808;28;20462;-83
2023/11/30 00:59:44;;;;;;;6.30;5.00;;;;;;;-0.30;100.00;151293.97;4988298;28;20477;-83
2023/11/30 01:02:11;;;;;;;8.10;5.30;;;;;;;-0.29;100.00;151297.81;4988215;28;20453;-83
2023/11/30 01:04:41;;;;;;;6.23;4.27;;;;;;;-0.27;100.00;151301.69;4991054;28;20842;-83
2023/11/30 01:07:07;;;;;;;6.83;4.40;;;;;;;-0.25;100.00;151308.09;4982086;28;20535;-83
2023/11/30 01:09:34;;;;;;;7.50;5.53;;;;;;;-0.27;100.00;151301.69;4984350;28;20482;-84
2023/11/30 01:12:00;;;;;;;8.63;4.90;;;;;;;-0.31;100.00;151292.69;4973183;28;20449;-83
2023/11/30 01:14:28;;;;;;;7.90;4.20;;;;;;;-0.34;100.00;151284.97;4987963;28;20618;-83
2023/11/30 01:16:55;;;;;;;6.50;4.07;;;;;;;-0.37;100.00;151277.28;4980341;28;20472;-83
2023/11/30 01:19:21;;;;;;;5.83;4.40;;;;;;;-0.39;100.00;151272.16;4984273;28;20481;-83
2023/11/30 01:21:48;;;;;;;5.10;4.60;;;;;;;-0.35;100.00;151282.44;4992286;28;20463;-83
2023/11/30 01:24:14;;;;;;;6.67;4.83;;;;;;;-0.34;100.00;151283.69;4988415;28;20993;-83
2023/11/30 01:26:41;;;;;;;5.77;4.33;;;;;;;-0.30;100.00;151293.97;4987455;28;20458;-83
2023/11/30 01:29:07;;;;;;;7.50;5.27;;;;;;;-0.30;100.00;151295.28;4987164;28;20480;-83
2023/11/30 01:31:35;;;;;;;6.90;4.43;;;;;;;-0.30;100.00;151293.97;4986900;28;20449;-83
2023/11/30 01:34:01;;;;;;;6.93;4.90;;;;;;;-0.30;100.00;151293.97;4971759;28;20443;-83
2023/11/30 01:36:28;;;;;;;7.60;4.67;;;;;;;-0.29;100.00;151296.56;4988763;28;20468;-83
2023/11/30 01:38:54;;;;;;;5.80;4.30;;;;;;;-0.31;100.00;151292.69;4982366;28;20459;-83
2023/11/30 01:41:21;;;;;;;4.93;4.20;;;;;;;-0.33;100.00;151287.56;4986131;28;20481;-83
2023/11/30 01:43:49;;;;;;;6.40;4.93;;;;;;;-0.33;100.00;151287.56;4985371;28;20448;-83
2023/11/30 01:46:15;;;;;;;6.93;4.47;;;;;;;-0.32;100.00;151288.84;4987361;28;20477;-83
2023/11/30 01:48:43;;;;;;;9.13;4.70;;;;;;;-0.35;100.00;151282.44;4988892;28;20452;-83
2023/11/30 01:51:10;;;;;;;6.77;4.90;;;;;;;-0.37;100.00;151277.28;4988263;28;20441;-83
2023/11/30 01:53:37;;;;;;;6.53;5.03;;;;;;;-0.38;100.00;151274.75;4987517;28;20521;-83
2023/11/30 01:56:04;;;;;;;7.10;5.47;;;;;;;-0.37;100.00;151277.28;4982142;28;20446;-83
2023/11/30 01:58:31;;;;;;;7.67;5.23;;;;;;;-0.39;100.00;151272.16;4968322;28;20451;-83
2023/11/30 02:00:58;;;;;;;7.90;5.33;;;;;;;-0.40;100.00;151269.63;4985385;28;20481;-83
2023/11/30 02:03:25;;;;;;;7.77;5.40;;;;;;;-0.41;100.00;151265.75;4983798;28;20946;-83
2023/11/30 02:05:53;;;;;;;9.27;6.57;;;;;;;-0.40;100.00;151268.34;4986570;28;20444;-84
2023/11/30 02:08:21;;;;;;;9.70;6.43;;;;;;;-0.40;100.00;151268.34;4978433;28;20458;-83
2023/11/30 02:10:47;;;;;;;9.13;6.10;;;;;;;-0.41;100.00;151265.75;4967252;28;20462;-83
2023/11/30 02:13:15;;;;;;;7.97;5.67;;;;;;;-0.42;100.00;151264.47;4986318;28;20453;-83
2023/11/30 02:15:41;;;;;;;7.60;6.07;;;;;;;-0.45;100.00;151256.75;4991458;28;20456;-83
2023/11/30 02:18:08;;;;;;;8.20;6.47;;;;;;;-0.49;100.00;151245.22;4985635;28;20777;-83
2023/11/30 02:20:35;;;;;;;6.90;5.93;;;;;;;-0.50;100.00;151243.94;4991822;28;20481;-83
2023/11/30 02:23:03;;;;;;;6.87;5.27;;;;;;;-0.51;100.00;151240.09;4995037;28;20919;-83
2023/11/30 02:25:30;;;;;;;9.87;6.20;;;;;;;-0.54;100.00;151233.69;4991787;28;20437;-84
2023/11/30 02:27:58;;;;;;;7.93;5.33;;;;;;;-0.61;100.00;151215.75;4988425;28;20457;-83
2023/11/30 02:30:25;;;;;;;8.53;6.00;;;;;;;-0.67;100.00;151200.34;4990634;28;20457;-83
2023/11/30 02:32:51;;;;;;;6.57;5.20;;;;;;;-0.73;100.00;151184.94;4991582;28;20452;-84
2023/11/30 02:35:18;;;;;;;6.70;5.50;;;;;;;-0.71;100.00;151190.06;4991997;28;20499;-83
2023/11/30 02:37:44;;;;;;;7.03;5.50;;;;;;;-0.72;100.00;151187.53;4990179;28;20453;-83
2023/11/30 02:40:13;;;;;;;8.47;6.20;;;;;;;-0.73;100.00;151184.94;4991800;28;20477;-82
2023/11/30 02:42:39;;;;;;;8.93;6.20;;;;;;;-0.78;100.00;151172.13;4994808;28;20535;-83
2023/11/30 02:45:07;;;;;;;8.57;5.70;;;;;;;-0.78;100.00;151172.13;4990337;28;20434;-83
2023/11/30 02:47:33;;;;;;;10.30;6.17;;;;;;;-0.78;100.00;151173.44;4973909;28;20560;-83
2023/11/30 02:50:00;;;;;;;8.57;5.80;;;;;;;-0.77;100.00;151174.72;4990765;28;20441;-83
2023/11/30 02:52:26;;;;;;;7.57;5.80;;;;;;;-0.74;100.00;151182.38;4992554;28;20800;-81
2023/11/30 02:54:53;;;;;;;6.97;5.30;;;;;;;-0.75;100.00;151179.84;4991573;28;20441;-85
2023/11/30 02:57:20;;;;;;;7.30;5.63;;;;;;;-0.76;100.00;151178.53;4986985;28;20457;-85
2023/11/30 02:59:47;;;;;;;8.87;6.03;;;;;;;-0.75;100.00;151181.13;4992981;28;20473;-84
2023/11/30 03:02:14;;;;;;;8.70;6.20;;;;;;;-0.75;100.00;151179.84;4991235;28;20461;-84
2023/11/30 03:04:40;;;;;;;8.67;6.53;;;;;;;-0.78;100.00;151172.13;4972543;28;20584;-85
2023/11/30 03:07:07;;;;;;;7.87;5.93;;;;;;;-0.80;100.00;151167.00;4980432;28;20467;-85
2023/11/30 03:09:34;;;;;;;8.33;6.00;;;;;;;-0.79;100.00;151170.84;4989461;28;20513;-85
2023/11/30 03:12:00;;;;;;;8.67;6.47;;;;;;;-0.79;100.00;151169.56;4981192;28;20449;-83
2023/11/30 03:14:28;;;;;;;6.40;4.90;;;;;;;-0.81;100.00;151164.44;4986658;28;20458;-84
2023/11/30 03:16:55;;;;;;;10.43;5.30;;;;;;;-0.80;100.00;151167.00;4972781;28;20452;-84
2023/11/30 03:19:21;;;;;;;8.90;5.90;;;;;;;-0.74;100.00;151182.38;4988861;28;20807;-84
2023/11/30 03:21:50;;;;;;;7.77;5.17;;;;;;;-0.75;100.00;151181.13;4989796;28;20485;-84
2023/11/30 03:24:17;;;;;;;6.90;5.40;;;;;;;-0.76;100.00;151178.53;4987033;28;20477;-84
2023/11/30 03:26:44;;;;;;;8.33;6.00;;;;;;;-0.76;100.00;151177.25;4988391;28;20457;-84
2023/11/30 03:29:10;;;;;;;9.00;6.43;;;;;;;-0.73;100.00;151184.94;4985484;28;20996;-84
2023/11/30 03:31:38;;;;;;;8.63;7.20;;;;;;;-0.73;100.00;151186.25;4990433;28;20456;-84
2023/11/30 03:34:05;;;;;;;9.83;7.53;;;;;;;-0.72;100.00;151187.53;4989303;28;20441;-84
2023/11/30 03:36:31;;;;;;;10.00;7.40;;;;;;;-0.72;100.00;151188.81;4988048;28;20560;-84
2023/11/30 03:38:58;;;;;;;7.63;6.80;;;;;;;-0.69;100.00;151196.47;4989359;28;20456;-84
2023/11/30 03:41:24;;;;;;;8.70;7.30;;;;;;;-0.65;100.00;151205.47;4988806;28;20832;-84
2023/11/30 03:43:51;;;;;;;8.50;6.50;;;;;;;-0.66;100.00;151202.88;4991049;28;20853;-84
2023/11/30 03:46:18;;;;;;;8.63;6.30;;;;;;;-0.66;100.00;151202.88;4988299;28;20464;-84
2023/11/30 03:48:46;;;;;;;11.43;6.90;;;;;;;-0.68;100.00;151199.06;4988932;28;20800;-84
2023/11/30 03:51:13;;;;;;;8.17;5.70;;;;;;;-0.70;100.00;151193.94;4990307;28;20777;-84
2023/11/30 03:53:39;;;;;;;9.00;6.20;;;;;;;-0.71;100.00;151191.34;4988679;28;20473;-84
2023/11/30 03:56:06;;;;;;;8.63;6.73;;;;;;;-0.72;100.00;151187.53;4988296;28;20471;-84
2023/11/30 03:58:33;;;;;;;8.07;6.73;;;;;;;-0.69;100.00;151195.25;4988423;28;20523;-84
2023/11/30 04:01:00;;;;;;;12.83;7.40;;;;;;;-0.66;100.00;151202.88;4989263;28;20470;-84
2023/11/30 04:03:26;;;;;;;8.93;7.30;;;;;;;-0.68;100.00;151199.06;4988529;28;20472;-84
2023/11/30 04:05:54;;;;;;;7.27;6.43;;;;;;;-0.68;100.00;151197.78;4988893;28;20454;-84
2023/11/30 04:08:21;;;;;;;8.60;6.27;;;;;;;-0.68;100.00;151199.06;4989910;28;20537;-84
2023/11/30 04:10:48;;;;;;;10.50;7.30;;;;;;;-0.71;100.00;151191.34;4988208;28;20811;-84
2023/11/30 04:13:15;;;;;;;8.20;6.07;;;;;;;-0.67;100.00;151200.34;4989431;28;21038;-84
2023/11/30 04:15:42;;;;;;;8.47;6.43;;;;;;;-0.69;100.00;151195.25;4972775;28;20806;-85
2023/11/30 04:18:08;;;;;;;8.37;7.47;;;;;;;-0.70;100.00;151192.66;4990033;28;20454;-84
2023/11/30 04:20:35;;;;;;;9.43;6.53;;;;;;;-0.71;100.00;151190.06;4987808;28;20988;-84
2023/11/30 04:23:03;;;;;;;9.20;6.77;;;;;;;-0.71;100.00;151190.06;4954635;28;20474;-84
2023/11/30 04:25:30;;;;;;;13.67;9.50;;;;;;;-0.70;100.00;151193.94;4988389;28;20794;-85
2023/11/30 04:27:57;;;;;;;11.30;7.93;;;;;;;-0.64;100.00;151208.06;4963087;28;20461;-85
2023/11/30 04:30:24;;;;;;;13.80;8.97;;;;;;;-0.62;100.00;151213.19;4977919;28;20438;-85
2023/11/30 04:32:51;;;;;;;11.00;8.03;;;;;;;-0.62;100.00;151213.19;4964655;28;20434;-84
2023/11/30 04:35:17;;;;;;;9.17;7.20;;;;;;;-0.59;100.00;151220.88;4987530;28;20472;-85
2023/11/30 04:37:44;;;;;;;12.27;9.00;;;;;;;-0.57;100.00;151226.00;4984828;28;20468;-85
2023/11/30 04:40:13;;;;;;;8.93;8.03;;;;;;;-0.54;100.00;151233.69;4988758;28;20889;-85
2023/11/30 04:42:39;;;;;;;11.27;8.70;;;;;;;-0.52;100.00;151237.53;4970516;28;21038;-85
2023/11/30 04:45:07;;;;;;;10.77;8.93;;;;;;;-0.51;100.00;151241.41;4989838;28;20761;-85
2023/11/30 04:47:33;;;;;;;11.40;7.77;;;;;;;-0.49;100.00;151246.53;4986409;28;20458;-85
2023/11/30 04:50:00;;;;;;;9.00;7.63;;;;;;;-0.47;100.00;151251.63;4972704;28;20441;-85
2023/11/30 04:52:26;;;;;;;12.57;9.00;;;;;;;-0.49;100.00;151245.22;4971252;28;20465;-83
2023/11/30 04:54:53;;;;;;;12.10;8.40;;;;;;;-0.45;100.00;151256.75;4989438;28;20437;-84
2023/11/30 04:57:21;;;;;;;15.20;9.17;;;;;;;-0.41;100.00;151267.03;4989940;28;20823;-84
2023/11/30 04:59:47;;;;;;;12.40;8.70;;;;;;;-0.41;100.00;151265.75;4988697;28;20483;-84
2023/11/30 05:02:14;;;;;;;12.30;8.30;;;;;;;-0.44;100.00;151259.34;4994414;28;20548;-84
2023/11/30 05:04:40;;;;;;;12.67;8.97;;;;;;;-0.48;100.00;151249.09;4992298;28;20903;-85
2023/11/30 05:07:07;;;;;;;11.03;8.57;;;;;;;-0.47;100.00;151251.63;4979911;28;20461;-84
2023/11/30 05:09:34;;;;;;;10.50;8.07;;;;;;;-0.47;100.00;151251.63;4984879;28;20459;-84
2023/11/30 05:12:00;;;;;;;11.77;8.63;;;;;;;-0.48;100.00;151249.09;4987439;28;20458;-84
2023/11/30 05:14:28;;;;;;;11.37;8.70;;;;;;;-0.47;100.00;151250.34;4987021;28;20453;-84
2023/11/30 05:16:55;;;;;;;8.60;7.47;;;;;;;-0.51;100.00;151241.41;5006149;28;20460;-84
2023/11/30 05:19:22;;;;;;;10.23;7.67;;;;;;;-0.51;100.00;151241.41;4996321;28;20538;-84
2023/11/30 05:21:48;;;;;;;10.37;8.13;;;;;;;-0.52;100.00;151238.81;5002445;28;20489;-84
2023/11/30 05:24:15;;;;;;;10.83;8.80;;;;;;;-0.52;100.00;151238.81;5007868;28;20789;-84
2023/11/30 05:26:41;;;;;;;13.23;9.67;;;;;;;-0.54;100.00;151232.41;5009005;28;20878;-84
2023/11/30 05:29:08;;;;;;;13.67;9.53;;;;;;;-0.62;100.00;151214.47;4990743;28;20446;-84
2023/11/30 05:31:36;;;;;;;14.37;10.17;;;;;;;-0.62;100.00;151214.47;4995189;28;20496;-84
2023/11/30 05:34:03;;;;;;;11.80;9.00;;;;;;;-0.63;100.00;151211.88;4998040;28;20444;-84
2023/11/30 05:36:30;;;;;;;12.33;9.53;;;;;;;-0.63;100.00;151211.88;4985289;28;20553;-83
2023/11/30 05:38:56;;;;;;;12.40;9.27;;;;;;;-0.65;100.00;151206.75;4987131;28;20489;-83
2023/11/30 05:41:23;;;;;;;13.33;8.73;;;;;;;-0.67;100.00;151201.66;4989382;28;20474;-84
2023/11/30 05:43:50;;;;;;;11.23;8.10;;;;;;;-0.67;100.00;151201.66;4986447;28;20485;-84
2023/11/30 05:46:17;;;;;;;10.70;8.60;;;;;;;-0.62;100.00;151213.19;4986481;28;20832;-84
2023/11/30 05:48:45;;;;;;;10.63;8.50;;;;;;;-0.58;100.00;151223.41;4986240;28;20474;-84
2023/11/30 05:51:12;;;;;;;13.03;9.00;;;;;;;-0.59;100.00;151219.59;4986175;28;20556;-84
2023/11/30 05:53:38;;;;;;;10.83;8.80;;;;;;;-0.62;100.00;151214.47;4985442;28;20496;-84
2023/11/30 05:56:06;;;;;;;11.50;8.47;;;;;;;-0.61;100.00;151215.75;4985299;28;20689;-84
2023/11/30 05:58:33;;;;;;;13.60;8.40;;;;;;;-0.61;100.00;151215.75;4985982;28;20468;-84
2023/11/30 06:00:59;;;;;;;11.67;8.67;;;;;;;-0.58;100.00;151223.41;4983094;28;20951;-84
2023/11/30 06:03:26;;;;;;;11.57;9.60;;;;;;;-0.58;100.00;151223.41;4989751;28;20465;-85
2023/11/30 06:05:55;;;;;;;11.50;8.87;;;;;;;-0.57;100.00;151226.00;4992229;28;20454;-85
2023/11/30 06:08:22;;;;;;;10.33;8.13;;;;;;;-0.54;100.00;151232.41;4993090;28;20468;-85
2023/11/30 06:10:48;;;;;;;12.50;8.90;;;;;;;-0.53;100.00;151235.00;4992606;28;20453;-84
2023/11/30 06:13:15;;;;;;;12.30;9.80;;;;;;;-0.49;100.00;151245.22;4991982;28;20465;-85
2023/11/30 06:15:42;;;;;;;9.37;7.53;;;;;;;-0.50;100.00;151243.94;4993173;28;20457;-84
2023/11/30 06:18:09;;;;;;;10.77;7.90;;;;;;;-0.49;100.00;151246.53;4992030;28;20821;-84
2023/11/30 06:20:36;;;;;;;12.03;9.10;;;;;;;-0.47;100.00;151250.34;4986754;28;20453;-84
2023/11/30 06:23:04;;;;;;;9.43;7.33;;;;;;;-0.49;100.00;151246.53;4991477;28;20477;-85
2023/11/30 06:25:31;;;;;;;11.07;9.33;;;;;;;-0.49;100.00;151246.53;4992151;28;20457;-83
2023/11/30 06:27:57;;;;;;;10.27;7.63;;;;;;;-0.48;100.00;151249.09;4964951;28;20459;-85
2023/11/30 06:30:24;;;;;;;13.90;8.50;;;;;;;-0.49;100.00;151245.22;4964151;28;20457;-85
2023/11/30 06:32:50;;;;;;;11.70;8.40;;;;;;;-0.49;100.00;151246.53;4993040;28;21090;-85
2023/11/30 06:35:17;;;;;;;9.50;7.20;;;;;;;-0.48;100.00;151249.09;4991073;28;20456;-85
2023/11/30 06:37:44;;;;;;;8.93;7.80;;;;;;;-0.47;100.00;151251.63;4992719;28;20464;-84
2023/11/30 06:40:13;;;;;;;9.40;7.90;;;;;;;-0.43;100.00;151261.94;4995357;28;20446;-84
2023/11/30 06:42:39;;;;;;;9.60;7.13;;;;;;;-0.40;100.00;151268.34;4988370;28;20481;-84
2023/11/30 06:45:10;;;;;;;10.90;7.37;;;;;;;-0.39;100.00;151272.16;4978004;28;21928;-84
2023/11/30 06:47:36;;;;;;;11.40;7.40;;;;;;;-0.41;100.00;151267.03;4980564;28;21055;-84
2023/11/30 06:50:03;;;;;;;9.47;6.67;;;;;;;-0.40;100.00;151269.63;4992870;28;20461;-84
2023/11/30 06:52:30;;;;;;;9.50;7.07;;;;;;;-0.40;100.00;151269.63;4991749;28;20540;-84
2023/11/30 06:54:57;;;;;;;9.40;6.40;;;;;;;-0.38;100.00;151274.75;4981918;28;20464;-84
2023/11/30 06:57:24;;;;;;;11.53;8.30;;;;;;;-0.36;100.00;151278.56;4984862;28;20458;-84
2023/11/30 06:59:51;;;;;;;10.80;6.30;;;;;;;-0.32;100.00;151290.09;4989138;28;20460;-84
2023/11/30 07:02:18;;;;;;;9.87;7.50;;;;;;;-0.30;100.00;151295.28;4993480;28;20485;-84
2023/11/30 07:04:44;;;;;;;11.37;8.60;;;;;;;-0.32;100.00;151290.09;4994287;28;20450;-84
2023/11/30 07:07:11;;;;;;;13.70;9.50;;;;;;;-0.33;100.00;151287.56;4997559;28;20446;-84
2023/11/30 07:09:37;;;;;;;11.10;8.30;;;;;;;-0.34;100.00;151284.97;5000221;28;20951;-84
2023/11/30 07:12:04;;;;;;;11.50;9.23;;;;;;;-0.34;100.00;151284.97;4994802;28;20453;-84
2023/11/30 07:14:35;;;;;;;12.60;8.73;;;;;;;-0.35;100.00;151281.16;4994866;28;20452;-84
2023/11/30 07:17:02;;;;;;;14.17;8.93;;;;;;;-0.37;100.00;151277.28;4994735;28;20453;-84
2023/11/30 07:19:32;;;;;;;11.53;8.60;;;;;;;-0.36;100.00;151279.88;4995486;28;20523;-84
2023/11/30 07:21:59;;;;;;;12.20;8.83;;;;;;;-0.34;100.00;151284.97;4990436;28;20488;-84
2023/11/30 07:24:25;;;;;;;12.90;10.00;;;;;;;-0.34;100.00;151284.97;4982876;28;20996;-84
2023/11/30 07:26:52;;;;;;;13.63;9.47;;;;;;;-0.34;100.00;151284.97;4995250;28;20457;-84
2023/11/30 07:29:18;;;;;;;9.40;8.10;;;;;;;-0.33;100.00;151287.56;4994691;28;20795;-84
2023/11/30 07:31:46;;;;;;;9.87;8.13;;;;;;;-0.31;100.00;151292.69;4995617;28;20457;-84
2023/11/30 07:34:13;;;;;;;11.13;9.40;;;;;;;-0.30;100.00;151295.28;4993302;28;20557;-84
2023/11/30 07:36:39;;;;;;;9.17;7.40;;;;;;;-0.27;100.00;151301.69;4994614;28;20470;-84
2023/11/30 07:39:06;;;;;;;13.03;8.90;;;;;;;-0.26;100.00;151304.22;4994964;28;20453;-84
2023/11/30 07:41:32;;;;;;;11.60;8.57;;;;;;;-0.26;100.00;151305.50;4995685;28;20485;-84
2023/11/30 07:43:59;;;;;;;14.57;8.90;;;;;;;-0.26;100.00;151304.22;4995906;28;20456;-84
2023/11/30 07:46:25;;;;;;;10.77;9.43;;;;;;;-0.23;100.00;151311.94;4983309;28;20464;-84
2023/11/30 07:48:53;;;;;;;12.43;9.40;;;;;;;-0.26;100.00;151305.50;4995327;28;20457;-84
2023/11/30 07:51:21;;;;;;;10.03;7.87;;;;;;;-0.26;100.00;151305.50;4993271;28;20444;-84
2023/11/30 07:53:48;;;;;;;15.23;8.40;;;;;;;-0.24;100.00;151310.63;4990903;28;20561;-84
2023/11/30 07:56:18;;;;;;;9.57;7.60;;;;;;;-0.24;100.00;151309.38;4978487;28;20457;-83
2023/11/30 07:58:44;;;;;;;10.30;8.57;;;;;;;-0.21;100.00;151318.34;4996392;28;20477;-84
2023/11/30 08:01:11;;;;;;;12.30;9.77;;;;;;;-0.18;100.00;151324.75;4993796;28;20458;-84
2023/11/30 08:03:38;;;;;;;11.70;8.40;;;;;;;-0.15;100.00;151333.75;4995662;28;20453;-84
2023/11/30 08:06:07;;;;;;;16.80;9.97;;;;;;;-0.12;100.00;151340.16;4993436;28;20559;-84
2023/11/30 08:08:33;;;;;;;16.10;10.63;;;;;;;-0.09;100.00;151347.88;4994744;28;20449;-85
2023/11/30 08:11:03;;;;;;;10.30;7.73;;;;;;;-0.07;100.00;151354.28;4994284;28;20464;-85
2023/11/30 08:13:30;;;;;;;12.90;8.23;;;;;;;-0.05;100.00;151359.41;4992987;28;20460;-83
2023/11/30 08:15:57;;;;;;;11.83;9.00;;;;;;;0.01;100.00;151373.53;4994649;28;20576;-83
2023/11/30 08:18:24;;;;;;;15.07;9.23;;;;;;;0.05;100.00;151382.50;4989640;28;20477;-83
2023/11/30 08:20:51;;;;;;;10.60;7.80;;;;;;;0.12;100.00;151400.47;4991225;28;20460;-84
2023/11/30 08:23:19;;;;;;;13.20;8.43;;;;;;;0.14;100.00;151405.59;4997210;28;21004;-84
2023/11/30 08:25:46;;;;;;;10.30;8.27;;;;;;;0.15;100.00;151408.19;4994102;28;20539;-83
2023/11/30 08:28:13;;;;;;;10.80;8.30;;;;;;;0.17;100.00;151413.28;4994907;28;20536;-84
2023/11/30 08:30:40;;;;;;;10.17;7.03;;;;;;;0.21;100.00;151423.59;4994615;28;20453;-84
2023/11/30 08:33:07;;;;;;;11.17;7.53;;;;;;;0.23;100.00;151430.00;4991293;28;20891;-83
2023/11/30 08:35:34;;;;;;;12.13;8.30;;;;;;;0.26;100.00;151436.41;4993787;28;20453;-84
2023/11/30 08:38:00;;;;;;;11.00;8.57;;;;;;;0.26;100.00;151436.41;4993678;28;20469;-83
2023/11/30 08:40:28;;;;;;;11.67;8.37;;;;;;;0.27;100.00;151438.97;4992032;28;21149;-83
2023/11/30 08:42:54;;;;;;;10.80;8.17;;;;;;;0.27;100.00;151440.25;4991677;28;20555;-83
2023/11/30 08:45:21;;;;;;;10.20;8.30;;;;;;;0.29;100.00;151444.13;4994492;28;20446;-83
2023/11/30 08:47:47;;;;;;;10.80;8.50;;;;;;;0.31;100.00;151449.25;4990842;28;20520;-83
2023/11/30 08:50:14;;;;;;;13.90;8.53;;;;;;;0.31;100.00;151450.53;4992453;28;21367;-83
2023/11/30 08:52:41;;;;;;;10.30;8.50;;;;;;;0.33;100.00;151454.38;4992612;28;20480;-83
2023/11/30 08:55:07;;;;;;;10.30;7.73;;;;;;;0.37;100.00;151464.66;4992155;28;20984;-83
2023/11/30 08:57:35;;;;;;;10.70;7.87;;;;;;;0.41;100.00;151474.91;4993261;28;20457;-83
2023/11/30 09:00:05;;;;;;;8.90;7.53;;;;;;;0.47;100.00;151491.63;4990088;28;20484;-83
2023/11/30 09:02:32;;;;;;;9.27;7.13;;;;;;;0.49;100.00;151495.44;4990277;28;20894;-83
2023/11/30 09:04:59;;;;;;;11.07;8.03;;;;;;;0.50;100.00;151499.28;4994983;28;20449;-83
2023/11/30 09:07:25;;;;;;;10.77;8.37;;;;;;;0.56;100.00;151513.41;4980080;28;20461;-83
2023/11/30 09:09:52;;;;;;;12.73;8.63;;;;;;;0.57;100.00;151516.00;4992919;28;20457;-83
2023/11/30 09:12:18;;;;;;;11.70;8.33;;;;;;;0.57;100.00;151516.00;4993050;28;20457;-83
2023/11/30 09:14:46;;;;;;;12.40;9.57;;;;;;;0.58;100.00;151518.59;4991445;28;20457;-83
2023/11/30 09:17:13;;;;;;;12.00;8.37;;;;;;;0.62;100.00;151528.81;4994239;28;20465;-82
2023/11/30 09:19:40;;;;;;;10.70;8.73;;;;;;;0.63;100.00;151531.41;4993000;28;20450;-82
2023/11/30 09:22:07;;;;;;;14.30;9.57;;;;;;;0.66;100.00;151539.13;4994244;28;20477;-83
2023/11/30 09:24:34;;;;;;;11.87;8.50;;;;;;;0.68;100.00;151542.97;4989612;28;20465;-83
2023/11/30 09:27:00;;;;;;;11.13;9.23;;;;;;;0.70;100.00;151549.38;4965736;28;20444;-82
2023/11/30 09:29:28;;;;;;;11.33;8.47;;;;;;;0.74;100.00;151558.38;4993262;28;21903;-82
2023/11/30 09:31:56;;;;;;;12.53;9.10;;;;;;;0.80;100.00;151573.75;4964762;28;20457;-82
2023/11/30 09:34:23;;;;;;;12.73;8.93;;;;;;;0.81;100.00;151577.63;4990546;28;20454;-83
2023/11/30 09:36:50;;;;;;;12.00;8.67;;;;;;;0.86;100.00;151590.47;4991464;28;20462;-82
2023/11/30 09:39:19;;;;;;;12.63;9.40;;;;;;;0.87;100.00;151593.06;4994010;28;20536;-82
2023/11/30 09:41:45;;;;;;;16.10;10.67;;;;;;;0.86;100.00;151590.47;4991528;28;20523;-82
2023/11/30 09:44:12;;;;;;;10.90;8.47;;;;;;;0.89;100.00;151596.88;4995063;28;20449;-82
2023/11/30 09:46:39;;;;;;;9.27;7.93;;;;;;;0.90;100.00;151600.72;4992810;28;20868;-82
2023/11/30 09:49:07;;;;;;;16.57;9.93;;;;;;;0.92;100.00;151604.59;4995339;28;21166;-82
2023/11/30 09:51:34;;;;;;;15.00;10.13;;;;;;;0.93;100.00;151608.44;4996919;28;20457;-82
2023/11/30 09:54:01;;;;;;;13.30;9.33;;;;;;;0.94;100.00;151611.03;4991903;28;20472;-82
2023/11/30 09:56:28;;;;;;;10.20;8.30;;;;;;;0.95;100.00;151613.59;4992091;28;20468;-82
2023/11/30 09:58:55;;;;;;;12.07;9.07;;;;;;;0.98;100.00;151621.28;4996369;28;20460;-82
2023/11/30 10:01:22;;;;;;;12.83;10.30;;;;;;;1.03;100.00;151632.88;4995967;28;20500;-82
2023/11/30 10:03:48;;;;;;;14.97;10.53;;;;;;;1.05;100.00;151639.28;4994612;28;20501;-82
2023/11/30 10:06:16;;;;;;;13.60;9.20;;;;;;;1.07;100.00;151644.41;4991499;28;20474;-82
2023/11/30 10:08:43;;;;;;;14.20;11.23;;;;;;;1.06;100.00;151641.81;4995888;28;20508;-81
2023/11/30 10:11:11;;;;;;;15.17;10.77;;;;;;;1.05;100.00;151639.28;4993779;28;20467;-82
2023/11/30 10:13:38;;;;;;;11.33;9.27;;;;;;;1.03;100.00;151634.09;4995082;28;20476;-81
2023/11/30 10:16:06;;;;;;;11.90;9.70;;;;;;;1.04;100.00;151635.41;4996779;28;20463;-81
2023/11/30 10:18:34;;;;;;;12.07;9.20;;;;;;;1.05;100.00;151638.00;4993277;28;20461;-81
2023/11/30 10:21:01;;;;;;;12.90;9.57;;;;;;;1.05;100.00;151639.28;4992802;28;20451;-81
2023/11/30 10:23:30;;;;;;;12.97;11.10;;;;;;;1.06;100.00;151641.81;4993899;28;20473;-81
2023/11/30 10:25:57;;;;;;;14.00;10.53;;;;;;;1.06;100.00;151641.81;4996664;28;20829;-81
2023/11/30 10:28:24;;;;;;;14.57;10.50;;;;;;;1.09;100.00;151648.25;4993895;28;20465;-81
2023/11/30 10:30:53;;;;;;;13.07;10.10;;;;;;;1.12;100.00;151657.25;4995798;28;20990;-81
2023/11/30 10:33:22;;;;;;;13.23;9.43;;;;;;;1.17;100.00;151668.78;4996095;28;20534;-81
2023/11/30 10:35:50;;;;;;;12.10;9.20;;;;;;;1.21;100.00;151679.09;4998415;28;20902;-81
2023/11/30 10:38:21;;;;;;;12.77;10.07;;;;;;;1.24;100.00;151686.81;4995683;28;20907;-80
2023/11/30 10:40:51;;;;;;;13.10;10.57;;;;;;;1.24;100.00;151688.06;4998123;28;20468;-80
2023/11/30 10:43:17;;;;;;;13.17;8.70;;;;;;;1.23;100.00;151684.22;4998001;28;20480;-80
2023/11/30 10:45:46;;;;;;;14.67;10.57;;;;;;;1.24;100.00;151688.06;4998898;28;20817;-80
2023/11/30 10:48:13;;;;;;;14.10;10.20;;;;;;;1.30;100.00;151700.94;4996552;28;20461;-80
2023/11/30 10:50:40;;;;;;;12.17;10.03;;;;;;;1.33;100.00;151709.91;4998083;28;20823;-80
2023/11/30 10:53:12;;;;;;;13.07;10.20;;;;;;;1.37;100.00;151718.91;4998568;28;20485;-79
2023/11/30 10:55:38;;;;;;;14.07;9.77;;;;;;;1.41;100.00;151729.16;4966067;28;20448;-80
2023/11/30 10:58:07;;;;;;;14.37;9.87;;;;;;;1.45;100.00;151739.47;4981406;28;20835;-80
2023/11/30 11:00:34;;;;;;;14.90;9.30;;;;;;;1.47;100.00;151744.59;4999457;28;20460;-80
2023/11/30 11:03:07;;;;;;;13.17;9.23;;;;;;;1.50;100.00;151752.31;4981718;28;20538;-80
2023/11/30 11:05:34;;;;;;;14.30;9.60;;;;;;;1.50;100.00;151753.63;4986897;28;20449;-79
2023/11/30 11:08:01;;;;;;;14.13;10.70;;;;;;;1.57;100.00;151770.28;4997960;28;20544;-80
2023/11/30 11:10:29;;;;;;;17.70;10.03;;;;;;;1.62;100.00;151783.13;4998683;28;22263;-80
2023/11/30 11:12:59;;;;;;;12.83;9.40;;;;;;;1.71;100.00;151807.59;5000367;28;20457;-80